createdAt,value
2019-01-02T00:02:06.489Z,16.70
2019-01-02T00:04:33.808Z,15.17
2019-01-02T00:07:01.195Z,13.63
2019-01-02T00:09:28.606Z,10.00
2019-01-02T00:11:56.558Z,13.00
2019-01-02T00:14:23.951Z,10.53
2019-01-02T00:16:51.714Z,11.67
2019-01-02T00:19:19.013Z,12.40
2019-01-02T00:21:46.685Z,11.20
2019-01-02T00:24:14.011Z,7.80
2019-01-02T00:26:41.475Z,7.57
2019-01-02T00:29:08.985Z,9.77
2019-01-02T00:31:36.511Z,15.07
2019-01-02T00:34:03.857Z,12.40
2019-01-02T00:36:31.210Z,8.33
2019-01-02T00:38:58.553Z,14.73
2019-01-02T00:41:25.941Z,10.20
2019-01-02T00:43:53.527Z,11.03
2019-01-02T00:46:20.866Z,9.70
2019-01-02T00:48:48.184Z,13.03
2019-01-02T00:51:15.541Z,12.57
2019-01-02T00:53:42.989Z,10.13
2019-01-02T00:56:10.321Z,11.17
2019-01-02T00:58:37.757Z,7.73
2019-01-02T01:01:05.159Z,9.57
2019-01-02T01:03:32.538Z,12.10
2019-01-02T01:06:00.239Z,9.33
2019-01-02T01:08:27.759Z,13.57
2019-01-02T01:10:55.583Z,7.30
2019-01-02T01:13:22.958Z,10.10
2019-01-02T01:15:50.878Z,8.37
2019-01-02T01:18:18.297Z,11.90
2019-01-02T01:20:46.172Z,6.83
2019-01-02T01:23:13.562Z,8.17
2019-01-02T01:25:41.288Z,13.47
2019-01-02T01:28:08.770Z,15.17
2019-01-02T01:30:37.065Z,7.00
2019-01-02T01:33:04.784Z,9.33
2019-01-02T01:35:32.255Z,13.03
2019-01-02T01:37:59.604Z,13.20
2019-01-02T01:40:27.015Z,11.60
2019-01-02T01:42:55.042Z,11.57
2019-01-02T01:45:22.680Z,12.43
2019-01-02T01:47:50.103Z,8.50
2019-01-02T01:50:17.953Z,8.97
2019-01-02T01:52:45.270Z,5.63
2019-01-02T01:55:12.744Z,8.03
2019-01-02T01:57:40.513Z,7.33
2019-01-02T02:00:09.539Z,7.70
2019-01-02T02:02:37.135Z,8.93
2019-01-02T02:05:05.619Z,8.73
2019-01-02T02:07:34.583Z,4.03
2019-01-02T02:10:02.216Z,6.37
2019-01-02T02:12:29.705Z,2.83
2019-01-02T02:14:57.541Z,4.40
2019-01-02T02:17:24.841Z,4.37
2019-01-02T02:19:52.355Z,5.17
2019-01-02T02:22:20.060Z,6.47
2019-01-02T02:24:47.523Z,6.50
2019-01-02T02:27:15.453Z,7.10
2019-01-02T02:29:42.836Z,6.37
2019-01-02T02:32:10.299Z,8.13
2019-01-02T02:34:37.804Z,9.80
2019-01-02T02:37:05.157Z,10.10
2019-01-02T02:39:32.592Z,8.30
2019-01-02T02:42:00.641Z,11.20
2019-01-02T02:44:28.340Z,7.00
2019-01-02T02:46:56.055Z,8.73
2019-01-02T02:49:23.499Z,9.03
2019-01-02T02:51:50.781Z,14.03
2019-01-02T02:54:18.469Z,13.40
2019-01-02T02:56:46.171Z,10.17
2019-01-02T02:59:13.997Z,13.67
2019-01-02T03:01:41.640Z,13.03
2019-01-02T03:04:09.393Z,12.63
2019-01-02T03:06:37.121Z,9.23
2019-01-02T03:09:06.385Z,8.97
2019-01-02T03:11:33.740Z,9.73
2019-01-02T03:14:01.400Z,11.80
2019-01-02T03:16:29.055Z,11.93
2019-01-02T03:18:56.803Z,12.03
2019-01-02T03:21:24.536Z,12.67
2019-01-02T03:23:52.271Z,8.37
2019-01-02T03:26:19.731Z,10.27
2019-01-02T03:28:47.137Z,7.10
2019-01-02T03:31:14.799Z,7.10
2019-01-02T03:33:42.532Z,4.73
2019-01-02T03:36:09.997Z,5.67
2019-01-02T03:38:37.392Z,7.10
2019-01-02T03:41:05.107Z,5.37
2019-01-02T03:43:32.577Z,4.20
2019-01-02T03:45:59.868Z,3.57
2019-01-02T03:48:27.305Z,3.60
2019-01-02T03:50:54.692Z,4.73
2019-01-02T03:53:22.032Z,3.03
2019-01-02T03:55:51.060Z,2.63
2019-01-02T03:58:18.458Z,6.23
2019-01-02T04:00:45.836Z,8.20
2019-01-02T04:03:13.296Z,9.90
2019-01-02T04:05:40.666Z,9.90
2019-01-02T04:08:08.226Z,5.87
2019-01-02T04:10:35.706Z,9.17
2019-01-02T04:13:03.035Z,7.20
2019-01-02T04:15:30.812Z,8.33
2019-01-02T04:17:59.364Z,6.67
2019-01-02T04:20:26.671Z,10.83
2019-01-02T04:22:54.063Z,4.17
2019-01-02T04:25:21.514Z,9.73
2019-01-02T04:27:48.828Z,8.53
2019-01-02T04:30:16.277Z,15.00
2019-01-02T04:32:43.678Z,17.10
2019-01-02T04:35:11.041Z,25.17
2019-01-02T04:37:38.364Z,18.23
2019-01-02T04:40:07.388Z,26.27
2019-01-02T04:42:34.814Z,19.93
2019-01-02T04:45:02.172Z,16.83
2019-01-02T04:47:29.530Z,24.50
2019-01-02T04:49:56.868Z,19.73
2019-01-02T04:52:24.189Z,25.40
2019-01-02T04:54:51.543Z,18.73
2019-01-02T04:57:18.919Z,22.27
2019-01-02T04:59:46.275Z,19.30
2019-01-02T05:02:13.675Z,24.43
2019-01-02T05:04:41.013Z,17.27
2019-01-02T05:07:08.349Z,33.30
2019-01-02T05:09:35.868Z,30.30
2019-01-02T05:12:03.114Z,26.17
2019-01-02T05:14:30.515Z,19.00
2019-01-02T05:16:57.970Z,21.63
2019-01-02T05:19:25.349Z,22.93
2019-01-02T05:21:52.665Z,26.30
2019-01-02T05:24:20.223Z,31.70
2019-01-02T05:26:47.621Z,22.63
2019-01-02T05:29:15.250Z,26.40
2019-01-02T05:31:42.689Z,25.83
2019-01-02T05:34:10.016Z,26.93
2019-01-02T05:36:37.338Z,29.03
2019-01-02T05:39:05.645Z,25.00
2019-01-02T05:41:33.054Z,23.60
2019-01-02T05:44:00.395Z,22.67
2019-01-02T05:46:27.956Z,24.20
2019-01-02T05:48:55.466Z,19.73
2019-01-02T05:51:22.952Z,27.70
2019-01-02T05:53:50.424Z,23.73
2019-01-02T05:56:18.086Z,16.53
2019-01-02T05:58:45.516Z,25.30
2019-01-02T06:01:12.933Z,28.30
2019-01-02T06:03:40.359Z,24.67
2019-01-02T06:06:07.752Z,31.17
2019-01-02T06:08:35.401Z,19.97
2019-01-02T06:11:02.797Z,23.60
2019-01-02T06:13:30.212Z,23.73
2019-01-02T06:15:57.592Z,30.87
2019-01-02T06:18:24.951Z,29.07
2019-01-02T06:20:52.452Z,27.17
2019-01-02T06:23:19.944Z,22.03
2019-01-02T06:25:47.293Z,25.13
2019-01-02T06:28:14.684Z,29.73
2019-01-02T06:30:42.095Z,25.60
2019-01-02T06:33:09.526Z,29.37
2019-01-02T06:35:36.951Z,25.07
2019-01-02T06:38:04.362Z,30.07
2019-01-02T06:40:31.773Z,30.40
2019-01-02T06:42:59.122Z,35.10
2019-01-02T06:45:26.574Z,23.60
2019-01-02T06:47:53.988Z,31.83
2019-01-02T06:50:21.682Z,27.80
2019-01-02T06:52:50.260Z,31.67
2019-01-02T06:55:17.606Z,27.77
2019-01-02T06:57:45.016Z,33.00
2019-01-02T07:00:14.075Z,29.57
2019-01-02T07:02:41.516Z,32.20
2019-01-02T07:05:08.955Z,32.53
2019-01-02T07:07:36.520Z,20.53
2019-01-02T07:10:05.336Z,22.73
2019-01-02T07:12:32.658Z,27.37
2019-01-02T07:15:00.167Z,31.30
2019-01-02T07:17:27.504Z,26.33
2019-01-02T07:19:54.896Z,33.97
2019-01-02T07:22:22.379Z,20.30
2019-01-02T07:24:49.739Z,25.17
2019-01-02T07:27:17.058Z,19.30
2019-01-02T07:29:44.421Z,23.50
2019-01-02T07:32:11.731Z,29.33
2019-01-02T07:34:43.728Z,27.40
2019-01-02T07:37:15.456Z,24.13
2019-01-02T07:39:47.163Z,26.17
2019-01-02T07:42:16.058Z,25.63
2019-01-02T07:44:48.121Z,30.47
2019-01-02T07:47:17.077Z,30.13
2019-01-02T07:49:58.353Z,28.80
2019-01-02T07:52:39.603Z,29.37
2019-01-02T07:55:12.359Z,27.33
2019-01-02T07:57:56.577Z,37.33
2019-01-02T08:00:28.295Z,30.60
2019-01-02T08:03:08.104Z,29.40
2019-01-02T08:05:40.810Z,32.87
2019-01-02T08:08:26.766Z,31.83
2019-01-02T08:10:58.739Z,31.07
2019-01-02T08:13:42.923Z,27.53
2019-01-02T08:16:18.026Z,34.27
2019-01-02T08:19:03.477Z,40.87
2019-01-02T08:21:38.180Z,22.93
2019-01-02T08:24:07.153Z,35.00
2019-01-02T08:26:36.205Z,28.10
2019-01-02T08:29:11.821Z,35.13
2019-01-02T08:31:46.893Z,25.63
2019-01-02T08:34:18.619Z,30.73
2019-01-02T08:37:00.658Z,41.67
2019-01-02T08:39:42.243Z,34.87
2019-01-02T08:42:13.911Z,31.53
2019-01-02T08:44:42.882Z,35.50
2019-01-02T08:47:28.551Z,29.40
2019-01-02T08:50:09.801Z,29.20
2019-01-02T08:52:55.694Z,29.00
2019-01-02T08:55:33.720Z,27.63
2019-01-02T08:58:20.808Z,31.60
2019-01-02T09:01:01.530Z,35.67
2019-01-02T09:03:39.792Z,42.37
2019-01-02T09:06:11.500Z,27.63
2019-01-02T09:08:43.473Z,26.40
2019-01-02T09:11:15.406Z,38.77
2019-01-02T09:14:03.129Z,39.53
2019-01-02T09:16:33.778Z,32.77
2019-01-02T09:19:08.793Z,31.30
2019-01-02T09:21:40.494Z,39.90
2019-01-02T09:24:22.873Z,31.63
2019-01-02T09:27:02.247Z,30.23
2019-01-02T09:29:49.342Z,25.13
2019-01-02T09:32:33.409Z,30.10
2019-01-02T09:35:20.350Z,30.50
2019-01-02T09:37:57.967Z,39.00
2019-01-02T09:40:30.187Z,21.97
2019-01-02T09:43:17.359Z,36.20
2019-01-02T09:45:53.962Z,27.20
2019-01-02T09:48:22.967Z,34.90
2019-01-02T09:50:51.928Z,32.07
2019-01-02T09:53:37.592Z,34.20
2019-01-02T09:56:06.544Z,32.83
2019-01-02T09:58:41.198Z,26.60
2019-01-02T10:01:22.321Z,27.13
2019-01-02T10:04:00.093Z,20.57
2019-01-02T10:06:32.208Z,22.13
2019-01-02T10:09:10.133Z,24.93
2019-01-02T10:11:45.193Z,23.40
2019-01-02T10:14:20.216Z,20.87
2019-01-02T10:16:49.187Z,24.60
2019-01-02T10:19:27.157Z,31.80
2019-01-02T10:22:12.817Z,32.13
2019-01-02T10:24:57.268Z,29.80
2019-01-02T10:27:29.366Z,28.20
2019-01-02T10:30:01.307Z,33.23
2019-01-02T10:32:36.944Z,38.33
2019-01-02T10:35:21.040Z,33.17
2019-01-02T10:37:52.705Z,25.70
2019-01-02T10:40:21.705Z,25.90
2019-01-02T10:43:07.373Z,26.80
2019-01-02T10:45:53.072Z,20.97
2019-01-02T10:48:29.338Z,19.03
2019-01-02T10:51:14.933Z,15.80
2019-01-02T10:53:45.960Z,20.47
2019-01-02T10:56:24.250Z,12.20
2019-01-02T10:59:02.518Z,12.77
2019-01-02T11:01:40.553Z,14.40
2019-01-02T11:04:27.906Z,16.07
2019-01-02T11:07:02.818Z,14.97
2019-01-02T11:09:44.117Z,15.77
2019-01-02T11:12:29.967Z,18.27
2019-01-02T11:15:08.161Z,13.80
2019-01-02T11:17:37.565Z,11.50
2019-01-02T11:20:23.427Z,14.00
2019-01-02T11:23:09.110Z,13.97
2019-01-02T11:25:57.273Z,15.93
2019-01-02T11:28:38.161Z,13.03
2019-01-02T11:31:25.056Z,7.83
2019-01-02T11:33:57.016Z,10.97
2019-01-02T11:36:29.114Z,10.33
2019-01-02T11:39:00.767Z,12.83
2019-01-02T11:41:29.740Z,13.67
2019-01-02T11:43:58.734Z,20.27
2019-01-02T11:46:26.150Z,17.90
2019-01-02T11:48:53.564Z,18.33
2019-01-02T11:51:21.021Z,22.80
2019-01-02T11:53:48.377Z,20.93
2019-01-02T11:56:15.825Z,24.23
2019-01-02T11:58:43.298Z,29.30
2019-01-02T12:01:10.728Z,45.60
2019-01-02T12:03:38.099Z,20.83
2019-01-02T12:06:07.151Z,12.97
2019-01-02T12:08:34.552Z,30.73
2019-01-02T12:11:02.074Z,17.63
2019-01-02T12:13:29.603Z,44.27
2019-01-02T12:15:56.959Z,19.93
2019-01-02T12:18:24.377Z,12.10
2019-01-02T12:20:53.368Z,20.20
2019-01-02T12:23:20.862Z,16.73
2019-01-02T12:25:48.348Z,21.13
2019-01-02T12:28:15.910Z,14.77
2019-01-02T12:30:43.810Z,11.53
2019-01-02T12:33:11.227Z,14.10
2019-01-02T12:35:38.622Z,16.27
2019-01-02T12:38:05.976Z,27.27
2019-01-02T12:40:33.364Z,22.23
2019-01-02T12:43:00.826Z,17.80
2019-01-02T12:45:30.343Z,18.77
2019-01-02T12:47:57.721Z,19.07
2019-01-02T12:50:25.113Z,25.23
2019-01-02T12:52:52.533Z,23.40
2019-01-02T12:55:19.908Z,26.20
2019-01-02T12:57:49.088Z,16.70
2019-01-02T13:00:16.560Z,13.27
2019-01-02T13:02:51.669Z,19.47
2019-01-02T13:05:37.405Z,21.17
2019-01-02T13:08:21.487Z,20.17
2019-01-02T13:10:50.515Z,24.00
2019-01-02T13:13:36.472Z,18.73
2019-01-02T13:16:17.706Z,22.20
2019-01-02T13:18:55.976Z,19.47
2019-01-02T13:21:33.995Z,17.73
2019-01-02T13:24:03.083Z,16.67
2019-01-02T13:26:32.016Z,15.00
2019-01-02T13:29:12.860Z,17.27
2019-01-02T13:31:41.872Z,15.70
2019-01-02T13:34:10.866Z,19.90
2019-01-02T13:36:39.870Z,27.50
2019-01-02T13:39:08.812Z,18.23
2019-01-02T13:41:43.670Z,23.17
2019-01-02T13:44:20.454Z,26.93
2019-01-02T13:47:01.826Z,27.33
2019-01-02T13:49:33.982Z,17.17
2019-01-02T13:52:01.444Z,19.70
2019-01-02T13:54:28.912Z,21.00
2019-01-02T13:56:56.256Z,16.60
2019-01-02T13:59:23.734Z,23.03
2019-01-02T14:01:51.204Z,15.50
2019-01-02T14:04:18.617Z,27.03
2019-01-02T14:06:46.082Z,11.07
2019-01-02T14:09:13.608Z,13.47
2019-01-02T14:11:40.984Z,23.23
2019-01-02T14:14:08.322Z,14.63
2019-01-02T14:16:35.804Z,13.93
2019-01-02T14:19:03.155Z,17.80
2019-01-02T14:21:30.552Z,25.43
2019-01-02T14:23:57.911Z,18.37
2019-01-02T14:26:25.250Z,25.37
2019-01-02T14:28:52.778Z,16.00
2019-01-02T14:31:20.336Z,16.40
2019-01-02T14:33:47.792Z,22.73
2019-01-02T14:36:15.286Z,27.47
2019-01-02T14:38:42.777Z,24.70
2019-01-02T14:41:10.108Z,18.67
2019-01-02T14:43:37.521Z,15.83
2019-01-02T14:46:05.026Z,18.00
2019-01-02T14:48:32.382Z,18.53
2019-01-02T14:50:59.784Z,19.73
2019-01-02T14:53:27.296Z,14.07
2019-01-02T14:55:54.815Z,16.80
2019-01-02T14:58:22.152Z,15.20
2019-01-02T15:00:49.568Z,18.87
2019-01-02T15:03:16.864Z,16.43
2019-01-02T15:05:44.320Z,16.33
2019-01-02T15:08:11.774Z,10.00
2019-01-02T15:10:39.189Z,26.10
2019-01-02T15:13:06.519Z,30.47
2019-01-02T15:15:34.193Z,28.50
2019-01-02T15:18:01.597Z,32.97
2019-01-02T15:20:29.127Z,26.97
2019-01-02T15:22:56.646Z,23.30
2019-01-02T15:25:24.412Z,28.30
2019-01-02T15:27:55.861Z,26.03
2019-01-02T15:30:23.257Z,25.77
2019-01-02T15:32:50.584Z,26.87
2019-01-02T15:35:17.983Z,29.60
2019-01-02T15:37:45.433Z,24.73
2019-01-02T15:40:12.848Z,29.33
2019-01-02T15:42:40.219Z,27.27
2019-01-02T15:45:09.273Z,17.93
2019-01-02T15:47:36.726Z,14.77
2019-01-02T15:50:05.883Z,21.43
2019-01-02T15:52:33.259Z,22.43
2019-01-02T15:55:00.733Z,21.87
2019-01-02T15:57:28.124Z,23.53
2019-01-02T15:59:55.544Z,31.10
2019-01-02T16:02:24.601Z,24.57
2019-01-02T16:04:52.095Z,23.87
2019-01-02T16:07:19.604Z,21.30
2019-01-02T16:09:47.000Z,20.27
2019-01-02T16:12:14.395Z,24.93
2019-01-02T16:14:41.797Z,21.90
2019-01-02T16:17:12.495Z,26.77
2019-01-02T16:19:40.976Z,31.87
2019-01-02T16:22:08.460Z,41.90
2019-01-02T16:24:37.396Z,34.10
2019-01-02T16:27:04.837Z,31.20
2019-01-02T16:29:32.225Z,32.13
2019-01-02T16:31:59.902Z,31.90
2019-01-02T16:34:27.287Z,29.37
2019-01-02T16:36:54.819Z,21.97
2019-01-02T16:39:22.234Z,22.83
2019-01-02T16:41:49.581Z,15.03
2019-01-02T16:44:17.021Z,17.90
2019-01-02T16:46:44.519Z,18.03
2019-01-02T16:49:11.904Z,18.43
2019-01-02T16:51:39.292Z,14.57
2019-01-02T16:54:06.788Z,13.73
2019-01-02T16:56:34.185Z,13.90
2019-01-02T16:59:01.909Z,20.67
2019-01-02T17:01:29.402Z,41.30
2019-01-02T17:03:56.733Z,28.37
2019-01-02T17:06:24.260Z,37.87
2019-01-02T17:08:51.593Z,24.57
2019-01-02T17:11:19.015Z,35.60
2019-01-02T17:13:46.470Z,40.60
2019-01-02T17:16:13.850Z,29.40
2019-01-02T17:18:41.281Z,40.70
2019-01-02T17:21:09.989Z,52.57
2019-01-02T17:23:37.373Z,38.03
2019-01-02T17:26:04.988Z,30.20
2019-01-02T17:28:32.526Z,21.23
2019-01-02T17:30:59.871Z,27.40
2019-01-02T17:33:28.401Z,38.80
2019-01-02T17:35:55.894Z,55.27
2019-01-02T17:38:23.240Z,34.10
2019-01-02T17:40:50.587Z,37.03
2019-01-02T17:43:18.835Z,21.33
2019-01-02T17:45:46.289Z,27.60
2019-01-02T17:48:13.663Z,39.47
2019-01-02T17:50:41.061Z,44.43
2019-01-02T17:53:10.881Z,64.30
2019-01-02T17:55:38.272Z,43.07
2019-01-02T17:58:05.810Z,34.43
2019-01-02T18:00:34.891Z,22.60
2019-01-02T18:03:02.264Z,96.83
2019-01-02T18:05:29.775Z,97.10
2019-01-02T18:07:58.768Z,41.03
2019-01-02T18:10:26.217Z,105.47
2019-01-02T18:12:53.670Z,38.20
2019-01-02T18:15:22.621Z,38.43
2019-01-02T18:17:50.010Z,40.73
2019-01-02T18:20:17.464Z,42.60
2019-01-02T18:22:44.854Z,40.83
2019-01-02T18:25:14.063Z,41.40
2019-01-02T18:27:41.495Z,20.23
2019-01-02T18:30:11.850Z,35.40
2019-01-02T18:32:39.276Z,29.70
2019-01-02T18:35:07.170Z,23.40
2019-01-02T18:37:36.168Z,28.43
2019-01-02T18:40:04.267Z,27.30
2019-01-02T18:42:31.813Z,30.90
2019-01-02T18:44:59.233Z,21.53
2019-01-02T18:47:26.712Z,24.70
2019-01-02T18:49:54.080Z,19.23
2019-01-02T18:52:23.299Z,30.70
2019-01-02T18:54:50.785Z,30.07
2019-01-02T18:57:18.378Z,22.33
2019-01-02T18:59:45.915Z,32.77
2019-01-02T19:02:16.667Z,27.03
2019-01-02T19:04:44.291Z,29.03
2019-01-02T19:07:12.311Z,33.07
2019-01-02T19:09:39.735Z,30.63
2019-01-02T19:12:07.326Z,45.50
2019-01-02T19:14:34.778Z,37.43
2019-01-02T19:17:02.237Z,51.13
2019-01-02T19:19:36.414Z,37.60
2019-01-02T19:22:01.347Z,27.60
2019-01-02T19:24:28.801Z,18.97
2019-01-02T19:26:56.358Z,26.83
2019-01-02T19:29:23.812Z,27.67
2019-01-02T19:31:53.224Z,19.73
2019-01-02T19:34:20.669Z,18.80
2019-01-02T19:36:50.197Z,20.40
2019-01-02T19:39:17.726Z,11.90
2019-01-02T19:42:25.981Z,11.80
2019-01-02T19:44:26.617Z,16.13
2019-01-02T19:46:54.038Z,14.23
2019-01-02T19:49:21.463Z,19.90
2019-01-02T19:51:50.589Z,14.20
2019-01-02T19:54:18.126Z,14.47
2019-01-02T19:56:45.595Z,18.20
2019-01-02T19:59:13.118Z,16.30
2019-01-02T20:01:40.683Z,20.17
2019-01-02T20:04:08.180Z,13.57
2019-01-02T20:06:35.653Z,21.50
2019-01-02T20:09:04.344Z,17.33
2019-01-02T20:11:31.734Z,20.67
2019-01-02T20:13:59.088Z,12.13
2019-01-02T20:16:26.592Z,15.07
2019-01-02T20:18:53.995Z,20.77
2019-01-02T20:21:21.491Z,15.77
2019-01-02T20:23:49.350Z,22.80
2019-01-02T20:26:17.055Z,19.60
2019-01-02T20:28:44.581Z,14.10
2019-01-02T20:31:12.110Z,11.47
2019-01-02T20:33:39.593Z,14.30
2019-01-02T20:36:07.025Z,15.23
2019-01-02T20:38:34.538Z,19.83
2019-01-02T20:41:02.115Z,17.90
2019-01-02T20:43:29.755Z,19.67
2019-01-02T20:45:57.319Z,25.43
2019-01-02T20:48:26.519Z,16.37
2019-01-02T20:50:54.161Z,24.23
2019-01-02T20:53:21.793Z,17.20
2019-01-02T20:55:52.100Z,18.03
2019-01-02T20:58:19.675Z,18.30
2019-01-02T21:00:49.990Z,16.00
2019-01-02T21:03:17.494Z,15.93
2019-01-02T21:05:45.358Z,24.07
2019-01-02T21:08:13.092Z,21.80
2019-01-02T21:10:48.323Z,23.17
2019-01-02T21:13:15.989Z,29.93
2019-01-02T21:15:43.503Z,16.33
2019-01-02T21:18:12.114Z,22.00
2019-01-02T21:20:42.541Z,23.73
2019-01-02T21:23:10.077Z,13.07
2019-01-02T21:25:40.332Z,16.40
2019-01-02T21:28:08.001Z,13.17
2019-01-02T21:30:41.179Z,14.00
2019-01-02T21:33:08.579Z,17.10
2019-01-02T21:35:39.330Z,19.00
2019-01-02T21:40:44.939Z,19.77
2019-01-02T21:43:14.039Z,20.33
2019-01-02T21:45:41.517Z,17.33
2019-01-02T21:48:10.670Z,22.20
2019-01-02T21:50:38.241Z,22.90
2019-01-02T21:53:05.794Z,18.10
2019-01-02T21:55:33.282Z,13.40
2019-01-02T21:58:01.910Z,27.27
2019-01-02T22:00:29.650Z,50.57
2019-01-02T22:02:57.155Z,29.80
2019-01-02T22:05:24.559Z,17.33
2019-01-02T22:07:52.098Z,23.23
2019-01-02T22:10:19.735Z,10.97
2019-01-02T22:12:47.267Z,26.30
2019-01-02T22:15:14.813Z,18.60
2019-01-02T22:17:44.797Z,25.20
2019-01-02T22:20:12.221Z,28.07
2019-01-02T22:22:39.785Z,18.30
2019-01-02T22:25:14.312Z,27.60
2019-01-02T22:27:43.418Z,16.63
2019-01-02T22:30:19.105Z,18.73
2019-01-02T22:32:48.602Z,13.33
2019-01-02T22:35:20.779Z,27.13
2019-01-02T22:37:48.415Z,24.30
2019-01-02T22:40:19.895Z,14.60
2019-01-02T22:42:47.492Z,14.90
2019-01-02T22:45:18.032Z,15.47
2019-01-02T22:47:45.712Z,22.70
2019-01-02T22:50:13.145Z,16.30
2019-01-02T22:52:40.737Z,9.80
2019-01-02T22:55:08.263Z,21.37
2019-01-02T22:57:37.504Z,15.90
2019-01-02T23:00:09.220Z,27.23
2019-01-02T23:02:44.862Z,22.10
2019-01-02T23:05:25.147Z,15.73
2019-01-02T23:11:12.767Z,10.73
2019-01-02T23:13:48.043Z,11.40
2019-01-02T23:16:22.294Z,16.33
2019-01-02T23:18:51.440Z,12.83
2019-01-02T23:21:24.026Z,11.20
2019-01-02T23:24:11.151Z,9.03
2019-01-02T23:26:45.575Z,12.13
2019-01-02T23:29:14.821Z,16.17
2019-01-02T23:31:43.861Z,10.30
2019-01-02T23:34:19.442Z,8.90
2019-01-02T23:36:51.196Z,11.70
2019-01-02T23:39:24.835Z,7.30
2019-01-02T23:41:55.600Z,7.17
2019-01-02T23:44:43.995Z,14.70
2019-01-02T23:47:16.110Z,23.97
2019-01-02T23:49:53.914Z,24.53
2019-01-02T23:52:42.784Z,12.77
2019-01-02T23:55:19.402Z,14.20
2019-01-02T23:57:51.225Z,16.77
